Manchester, Kentucky
Current Conditions -  °F | °C
As of 4:53 PM on Tuesday 21 Oct 2014 (Local Time) from KLOZ Reporting Station
Overcast Overcast  
Wind Chill: 57°   Ceiling: 5500
Heat Index: 57°   Visibility: 10mi
Dew Point: 40°   Wind: 12mph
Humidity: 53%   Direction: 350°N
Pressure: 30.06"   Gusts: 21mph
Location:  37.15°N, 83.76°W
Report Text: KLOZ 212053Z AUTO 35010G18KT 10SM OVC055 14/04 A3006 RMK AO2 SLP178 T01390044 53008
Loading
Personal Weather Stations






























Interactive Weather Map
Tropical Storm Tracking
New forecast layout! Learn more

10-Day Weather Forecast

Advertisements
Track Severe Weather on mobile